Time;durP1;ratioP1;P1;durP2;ratioP2;P2;SDS_P1;SDS_P2;PMS_P1;PMS_P2;Temp;Humidity;BMP_temperature;BMP_pressure;BME280_temperature;BME280_humidity;BME280_pressure;Samples;Min_cycle;Max_cycle;Signal;HPM_P1;HPM_P2
2022/10/25 00:01:09;;;;;;;8.45;3.17;;;;;;;;;;6238622;23;20021;-48
2022/10/25 00:03:43;;;;;;;8.48;3.20;;;;;;;;;;6238602;23;20031;-51
2022/10/25 00:06:10;;;;;;;7.65;3.00;;;;;;;;;;6239985;23;20024;-52
2022/10/25 00:08:44;;;;;;;14.65;3.92;;;;;;;;;;6239608;23;20111;-52
2022/10/25 00:11:19;;;;;;;11.65;3.70;;;;;;;;;;6239884;23;20020;-59
2022/10/25 00:13:55;;;;;;;14.65;3.80;;;;;;;;;;6239737;23;20131;-50
2022/10/25 00:16:23;;;;;;;13.50;3.92;;;;;;;;;;6237827;23;20020;-51
2022/10/25 00:18:51;;;;;;;15.43;4.30;;;;;;;;;;6239953;23;20024;-51
2022/10/25 00:21:31;;;;;;;16.48;4.85;;;;;;;;;;6238778;23;20365;-49
2022/10/25 00:24:12;;;;;;;10.95;4.25;;;;;;;;;;6239984;23;20398;-50
2022/10/25 00:26:46;;;;;;;23.15;4.63;;;;;;;;;;6239299;23;20020;-48
2022/10/25 00:29:20;;;;;;;24.55;5.03;;;;;;;;;;6239853;23;20127;-54
2022/10/25 00:31:54;;;;;;;17.55;4.85;;;;;;;;;;6239198;23;20024;-60
2022/10/25 00:34:29;;;;;;;24.02;4.90;;;;;;;;;;6238958;23;20745;-59
2022/10/25 00:36:56;;;;;;;25.73;5.90;;;;;;;;;;6239759;23;20114;-60
2022/10/25 00:39:23;;;;;;;34.75;6.07;;;;;;;;;;6239786;23;20346;-60
2022/10/25 00:41:57;;;;;;;25.60;5.50;;;;;;;;;;6239045;23;20395;-60
2022/10/25 00:44:40;;;;;;;25.60;5.32;;;;;;;;;;6239137;23;20020;-60
2022/10/25 00:47:13;;;;;;;;;;;;;;;;;;6239263;23;20107;-60
2022/10/25 00:49:41;;;;;;;25.25;5.47;;;;;;;;;;6238029;23;20400;-62
2022/10/25 00:52:15;;;;;;;29.58;5.65;;;;;;;;;;6227865;23;20119;-56
2022/10/25 00:54:45;;;;;;;31.33;5.57;;;;;;;;;;6238875;23;20022;-58
2022/10/25 00:57:39;;;;;;;26.67;5.30;;;;;;;;;;6239463;23;20020;-57
2022/10/25 01:00:07;;;;;;;28.20;5.53;;;;;;;;;;6238762;23;20059;-58
2022/10/25 01:02:42;;;;;;;28.30;5.65;;;;;;;;;;6239174;23;20477;-58
2022/10/25 01:05:10;;;;;;;28.60;5.25;;;;;;;;;;6238768;23;20482;-56
2022/10/25 01:07:44;;;;;;;24.42;4.82;;;;;;;;;;6239096;23;20028;-60
2022/10/25 01:10:12;;;;;;;18.40;4.38;;;;;;;;;;6227376;23;20064;-59
2022/10/25 01:12:39;;;;;;;20.40;4.22;;;;;;;;;;6240607;23;20094;-58
2022/10/25 01:15:18;;;;;;;21.25;4.50;;;;;;;;;;6238957;23;20028;-59
2022/10/25 01:17:50;;;;;;;19.33;4.95;;;;;;;;;;6238712;23;20024;-58
2022/10/25 01:20:49;;;;;;;20.60;4.45;;;;;;;;;;6239313;23;20098;-58
2022/10/25 01:23:29;;;;;;;28.92;5.07;;;;;;;;;;6237762;23;20027;-59
2022/10/25 01:26:22;;;;;;;23.10;4.85;;;;;;;;;;6238740;23;20027;-54
2022/10/25 01:28:52;;;;;;;24.27;4.70;;;;;;;;;;6239363;23;20105;-54
2022/10/25 01:31:26;;;;;;;18.00;5.15;;;;;;;;;;6239544;23;20024;-59
2022/10/25 01:33:53;;;;;;;27.10;5.75;;;;;;;;;;6237682;23;20098;-60
2022/10/25 01:36:33;;;;;;;23.60;4.45;;;;;;;;;;6238669;23;20556;-59
2022/10/25 01:39:03;;;;;;;24.40;4.90;;;;;;;;;;6238818;23;20457;-59
2022/10/25 01:41:56;;;;;;;22.95;4.70;;;;;;;;;;6239327;23;20024;-59
2022/10/25 01:44:38;;;;;;;18.08;4.60;;;;;;;;;;6239988;23;20027;-59
2022/10/25 01:47:20;;;;;;;25.65;4.65;;;;;;;;;;6237775;23;20042;-62
2022/10/25 01:49:50;;;;;;;24.90;4.22;;;;;;;;;;6239118;23;20123;-56
2022/10/25 01:52:24;;;;;;;27.92;4.80;;;;;;;;;;6238800;23;20020;-58
2022/10/25 01:54:51;;;;;;;22.75;4.43;;;;;;;;;;6237918;23;20435;-58
2022/10/25 01:57:28;;;;;;;22.83;4.85;;;;;;;;;;6239494;23;20103;-57
2022/10/25 02:00:18;;;;;;;27.23;4.72;;;;;;;;;;6237830;23;20450;-58
2022/10/25 02:02:58;;;;;;;25.08;4.72;;;;;;;;;;6236139;23;20028;-58
2022/10/25 02:05:35;;;;;;;27.30;4.20;;;;;;;;;;6237969;23;20680;-58
2022/10/25 02:08:20;;;;;;;13.90;4.05;;;;;;;;;;6238243;23;20028;-60
2022/10/25 02:10:53;;;;;;;18.88;3.65;;;;;;;;;;6238092;23;20024;-61
2022/10/25 02:13:27;;;;;;;20.83;4.85;;;;;;;;;;6237835;23;20023;-60
2022/10/25 02:16:00;;;;;;;20.08;4.53;;;;;;;;;;6238541;23;20024;-60
2022/10/25 02:18:36;;;;;;;20.95;4.88;;;;;;;;;;6239670;23;20028;-61
2022/10/25 02:21:12;;;;;;;25.45;4.38;;;;;;;;;;6235823;23;20024;-61
2022/10/25 02:23:54;;;;;;;24.73;4.38;;;;;;;;;;6239825;23;20016;-61
2022/10/25 02:26:22;;;;;;;21.60;4.03;;;;;;;;;;6241107;23;20024;-59
2022/10/25 02:28:56;;;;;;;23.65;5.05;;;;;;;;;;6238252;23;20107;-58
2022/10/25 02:31:25;;;;;;;18.70;4.30;;;;;;;;;;6240195;23;20561;-58
2022/10/25 02:33:52;;;;;;;24.25;4.93;;;;;;;;;;6240723;23;20024;-59
2022/10/25 02:36:26;;;;;;;21.58;4.35;;;;;;;;;;6240745;23;20060;-58
2022/10/25 02:38:54;;;;;;;13.48;4.05;;;;;;;;;;6240476;23;20042;-59
2022/10/25 02:41:27;;;;;;;23.50;4.28;;;;;;;;;;6240529;23;20339;-61
2022/10/25 02:43:55;;;;;;;21.65;4.07;;;;;;;;;;6240286;23;20020;-64
2022/10/25 02:46:22;;;;;;;24.85;4.97;;;;;;;;;;6240509;23;20030;-64
2022/10/25 02:48:56;;;;;;;20.42;3.92;;;;;;;;;;6239610;23;20028;-63
2022/10/25 02:51:23;;;;;;;11.80;3.50;;;;;;;;;;6239953;23;20020;-64
2022/10/25 02:53:57;;;;;;;18.00;4.65;;;;;;;;;;6240795;23;20031;-64
2022/10/25 02:56:25;;;;;;;16.33;4.32;;;;;;;;;;6213198;23;20368;-64
2022/10/25 02:58:54;;;;;;;12.95;3.63;;;;;;;;;;6240355;23;20027;-63
2022/10/25 03:01:28;;;;;;;19.52;3.92;;;;;;;;;;6215141;23;20024;-60
2022/10/25 03:03:56;;;;;;;17.15;4.47;;;;;;;;;;6239954;23;20020;-60
2022/10/25 03:06:29;;;;;;;10.70;3.17;;;;;;;;;;6240838;23;20038;-64
2022/10/25 03:08:56;;;;;;;9.43;2.97;;;;;;;;;;6240462;23;20102;-63
2022/10/25 03:11:24;;;;;;;14.20;3.17;;;;;;;;;;6239701;23;20099;-64
2022/10/25 03:13:57;;;;;;;13.60;3.22;;;;;;;;;;6240542;23;20021;-63
2022/10/25 03:16:24;;;;;;;10.38;2.97;;;;;;;;;;6241436;23;20358;-64
2022/10/25 03:18:52;;;;;;;14.23;3.28;;;;;;;;;;6240402;23;20482;-64
2022/10/25 03:21:32;;;;;;;16.10;3.22;;;;;;;;;;6240076;23;20028;-64
2022/10/25 03:24:11;;;;;;;12.93;3.35;;;;;;;;;;6241241;23;20047;-60
2022/10/25 03:26:45;;;;;;;14.82;2.70;;;;;;;;;;6239461;23;20488;-59
2022/10/25 03:29:13;;;;;;;19.83;3.25;;;;;;;;;;6239778;23;20024;-59
2022/10/25 03:31:40;;;;;;;10.85;2.88;;;;;;;;;;6239264;23;20510;-60
2022/10/25 03:34:13;;;;;;;15.73;3.70;;;;;;;;;;6237802;23;20030;-61
2022/10/25 03:36:41;;;;;;;15.20;3.95;;;;;;;;;;6240819;23;20096;-59
2022/10/25 03:39:14;;;;;;;13.93;3.65;;;;;;;;;;6226872;23;20032;-61
2022/10/25 03:41:42;;;;;;;11.43;3.78;;;;;;;;;;6239033;23;20346;-51
2022/10/25 03:44:09;;;;;;;15.35;3.85;;;;;;;;;;6240607;23;20067;-63
2022/10/25 03:46:42;;;;;;;18.05;4.97;;;;;;;;;;6240313;23;20136;-63
2022/10/25 03:49:10;;;;;;;13.68;3.55;;;;;;;;;;6239708;23;20030;-63
2022/10/25 03:51:43;;;;;;;20.42;3.80;;;;;;;;;;6239387;23;20024;-63
2022/10/25 03:54:11;;;;;;;20.00;4.22;;;;;;;;;;6239289;23;20023;-63
2022/10/25 03:56:38;;;;;;;21.98;4.40;;;;;;;;;;6238972;23;20027;-63
2022/10/25 03:59:11;;;;;;;17.90;4.10;;;;;;;;;;6240478;23;20024;-60
2022/10/25 04:01:38;;;;;;;23.55;4.55;;;;;;;;;;6238245;23;20098;-59
2022/10/25 04:04:13;;;;;;;17.45;3.70;;;;;;;;;;6238959;23;20024;-58
2022/10/25 04:06:40;;;;;;;16.17;4.22;;;;;;;;;;6214413;23;20103;-59
2022/10/25 04:09:07;;;;;;;22.60;4.60;;;;;;;;;;6239369;23;20113;-59
2022/10/25 04:11:40;;;;;;;15.20;4.00;;;;;;;;;;6240619;23;20023;-58
2022/10/25 04:14:08;;;;;;;20.83;4.10;;;;;;;;;;6240983;23;20106;-59
2022/10/25 04:16:35;;;;;;;11.93;3.67;;;;;;;;;;6241447;23;20103;-59
2022/10/25 04:19:08;;;;;;;21.92;4.18;;;;;;;;;;6238235;23;20024;-59
2022/10/25 04:21:42;;;;;;;17.05;3.95;;;;;;;;;;6237932;23;20027;-52
2022/10/25 04:24:16;;;;;;;18.35;3.72;;;;;;;;;;6240469;23;20024;-52
2022/10/25 04:26:44;;;;;;;18.85;4.38;;;;;;;;;;6237359;23;20024;-51
2022/10/25 04:29:11;;;;;;;15.38;4.03;;;;;;;;;;6238091;23;20034;-53
2022/10/25 04:31:45;;;;;;;9.88;3.63;;;;;;;;;;6238130;23;20594;-50
2022/10/25 04:34:13;;;;;;;12.40;3.47;;;;;;;;;;6238344;23;20335;-51
2022/10/25 04:36:47;;;;;;;8.60;2.65;;;;;;;;;;6237891;23;20043;-52
2022/10/25 04:39:14;;;;;;;11.40;2.95;;;;;;;;;;6238548;23;20107;-59
2022/10/25 04:41:41;;;;;;;16.63;3.08;;;;;;;;;;6239137;23;20103;-58
2022/10/25 04:44:14;;;;;;;11.10;2.65;;;;;;;;;;6227690;23;20024;-59
2022/10/25 04:46:42;;;;;;;7.07;2.08;;;;;;;;;;6239336;23;20461;-59
2022/10/25 04:49:16;;;;;;;5.78;2.03;;;;;;;;;;6237306;23;20034;-59
2022/10/25 04:51:49;;;;;;;10.00;2.10;;;;;;;;;;6235798;23;20580;-59
2022/10/25 04:54:23;;;;;;;10.63;2.03;;;;;;;;;;6239452;23;20044;-58
2022/10/25 04:56:51;;;;;;;8.43;2.15;;;;;;;;;;6237975;23;20016;-60
2022/10/25 04:59:18;;;;;;;3.72;1.58;;;;;;;;;;6239773;23;20487;-59
2022/10/25 05:01:51;;;;;;;5.00;1.67;;;;;;;;;;6238167;23;20020;-60
2022/10/25 05:04:19;;;;;;;10.27;2.08;;;;;;;;;;6238803;23;20074;-60
2022/10/25 05:06:52;;;;;;;6.65;1.70;;;;;;;;;;6240330;23;20046;-60
2022/10/25 05:09:20;;;;;;;13.15;2.53;;;;;;;;;;6240028;23;20465;-59
2022/10/25 05:11:47;;;;;;;11.68;2.28;;;;;;;;;;6238265;23;20103;-60
2022/10/25 05:14:20;;;;;;;10.07;2.30;;;;;;;;;;6239765;23;20020;-63
2022/10/25 05:16:47;;;;;;;6.55;2.17;;;;;;;;;;6239803;23;20024;-63
2022/10/25 05:19:21;;;;;;;12.27;2.65;;;;;;;;;;6238547;23;20024;-51
2022/10/25 05:22:01;;;;;;;13.40;2.60;;;;;;;;;;6239184;23;20020;-50
2022/10/25 05:24:35;;;;;;;16.35;2.92;;;;;;;;;;6239047;23;20098;-48
2022/10/25 05:27:03;;;;;;;11.68;2.60;;;;;;;;;;6238859;23;20020;-50
2022/10/25 05:29:38;;;;;;;13.10;3.20;;;;;;;;;;6238923;23;20050;-51
2022/10/25 05:32:05;;;;;;;7.32;2.65;;;;;;;;;;6238207;23;20241;-51
2022/10/25 05:34:32;;;;;;;15.65;3.15;;;;;;;;;;6239592;23;20055;-60
2022/10/25 05:37:07;;;;;;;11.73;2.90;;;;;;;;;;6239592;23;20361;-50
2022/10/25 05:39:34;;;;;;;12.40;3.25;;;;;;;;;;6240538;23;20016;-53
2022/10/25 05:42:08;;;;;;;10.73;3.10;;;;;;;;;;6240053;23;20251;-52
2022/10/25 05:44:35;;;;;;;17.33;3.28;;;;;;;;;;6240196;23;20052;-53
2022/10/25 05:47:02;;;;;;;10.50;3.42;;;;;;;;;;6239380;23;20028;-49
2022/10/25 05:49:38;;;;;;;13.10;3.50;;;;;;;;;;6239846;23;20028;-52
2022/10/25 05:52:06;;;;;;;17.67;3.17;;;;;;;;;;6237851;23;20028;-62
2022/10/25 05:54:40;;;;;;;14.57;3.15;;;;;;;;;;6237695;23;20024;-59
2022/10/25 05:57:07;;;;;;;8.60;3.15;;;;;;;;;;6239774;23;20078;-50
2022/10/25 05:59:34;;;;;;;12.30;4.22;;;;;;;;;;6240050;23;20020;-54
2022/10/25 06:02:08;;;;;;;11.48;3.55;;;;;;;;;;6238001;23;20784;-52
2022/10/25 06:04:36;;;;;;;20.48;4.47;;;;;;;;;;6239349;23;20024;-55
2022/10/25 06:07:09;;;;;;;23.67;4.80;;;;;;;;;;6239278;23;20020;-54
2022/10/25 06:09:37;;;;;;;18.85;3.92;;;;;;;;;;6238352;23;20062;-55
2022/10/25 06:12:10;;;;;;;27.55;4.57;;;;;;;;;;6239283;23;20023;-61
2022/10/25 06:14:38;;;;;;;14.50;3.83;;;;;;;;;;6238883;23;20020;-61
2022/10/25 06:17:05;;;;;;;22.73;4.95;;;;;;;;;;6238856;23;20024;-61
2022/10/25 06:19:39;;;;;;;13.82;4.28;;;;;;;;;;6240009;23;20353;-61
2022/10/25 06:22:12;;;;;;;34.17;5.10;;;;;;;;;;6238582;23;20024;-61
2022/10/25 06:24:52;;;;;;;34.95;6.25;;;;;;;;;;6237797;23;20047;-61
2022/10/25 06:27:19;;;;;;;17.90;4.47;;;;;;;;;;6239402;23;20027;-61
2022/10/25 06:29:54;;;;;;;29.08;5.10;;;;;;;;;;6239737;23;20525;-62
2022/10/25 06:32:21;;;;;;;26.83;5.05;;;;;;;;;;6238824;23;20016;-63
2022/10/25 06:34:48;;;;;;;29.15;5.80;;;;;;;;;;6239333;23;20020;-61
2022/10/25 06:37:22;;;;;;;28.35;6.03;;;;;;;;;;6239028;23;20125;-62
2022/10/25 06:39:50;;;;;;;19.05;4.93;;;;;;;;;;6240229;23;20091;-62
2022/10/25 06:42:23;;;;;;;19.15;5.20;;;;;;;;;;6239315;23;20020;-62
2022/10/25 06:44:51;;;;;;;25.83;5.07;;;;;;;;;;6239522;23;20656;-61
2022/10/25 06:47:24;;;;;;;18.85;4.82;;;;;;;;;;6239113;23;20108;-61
2022/10/25 06:49:52;;;;;;;19.08;3.67;;;;;;;;;;6239914;23;20028;-59
2022/10/25 06:52:19;;;;;;;20.77;4.30;;;;;;;;;;6240845;22;20100;-59
2022/10/25 06:54:53;;;;;;;17.00;4.53;;;;;;;;;;6236550;23;20077;-51
2022/10/25 06:57:20;;;;;;;19.85;3.88;;;;;;;;;;6238589;23;20544;-52
2022/10/25 06:59:54;;;;;;;21.50;4.70;;;;;;;;;;6238227;23;20111;-52
2022/10/25 07:02:21;;;;;;;18.60;4.00;;;;;;;;;;6239138;23;20020;-51
2022/10/25 07:04:48;;;;;;;18.55;4.35;;;;;;;;;;6239285;23;20021;-54
2022/10/25 07:07:23;;;;;;;22.95;4.78;;;;;;;;;;6241006;23;20103;-49
2022/10/25 07:09:50;;;;;;;26.73;5.05;;;;;;;;;;6239169;23;20030;-62
2022/10/25 07:12:23;;;;;;;14.90;3.88;;;;;;;;;;6240439;23;20022;-63
2022/10/25 07:14:51;;;;;;;20.70;4.70;;;;;;;;;;6241057;23;20103;-64
2022/10/25 07:17:24;;;;;;;19.73;3.75;;;;;;;;;;6241189;23;20095;-64
2022/10/25 07:19:52;;;;;;;33.42;6.35;;;;;;;;;;6241898;23;20020;-64
2022/10/25 07:22:19;;;;;;;23.10;5.32;;;;;;;;;;6239276;23;20030;-63
2022/10/25 07:24:52;;;;;;;35.95;5.82;;;;;;;;;;6240828;23;20027;-63
2022/10/25 07:27:20;;;;;;;25.95;4.85;;;;;;;;;;6241066;23;20134;-59
2022/10/25 07:29:53;;;;;;;29.05;4.97;;;;;;;;;;6241863;23;20024;-49
2022/10/25 07:32:20;;;;;;;28.67;5.13;;;;;;;;;;6240969;23;20092;-59
2022/10/25 07:34:54;;;;;;;31.35;5.68;;;;;;;;;;6240425;23;20046;-59
2022/10/25 07:37:22;;;;;;;25.63;4.82;;;;;;;;;;6239630;23;20016;-59
2022/10/25 07:39:55;;;;;;;29.70;5.53;;;;;;;;;;6238814;23;20028;-59
2022/10/25 07:42:23;;;;;;;33.15;5.07;;;;;;;;;;6241923;23;20099;-59
2022/10/25 07:44:50;;;;;;;24.20;4.57;;;;;;;;;;6241542;23;20082;-60
2022/10/25 07:47:23;;;;;;;22.77;4.60;;;;;;;;;;6240299;23;20462;-50
2022/10/25 07:49:51;;;;;;;30.35;5.30;;;;;;;;;;6241078;23;20034;-59
2022/10/25 07:52:24;;;;;;;20.45;4.05;;;;;;;;;;6240577;23;20035;-51
2022/10/25 07:54:52;;;;;;;30.70;4.75;;;;;;;;;;6240224;23;20020;-51
2022/10/25 07:57:19;;;;;;;19.25;3.97;;;;;;;;;;6240585;23;20488;-48
2022/10/25 07:59:52;;;;;;;19.15;4.05;;;;;;;;;;6241390;23;20024;-51
2022/10/25 08:02:20;;;;;;;16.98;3.80;;;;;;;;;;6241311;23;20123;-53
2022/10/25 08:04:54;;;;;;;18.48;3.80;;;;;;;;;;6240430;23;20026;-55
2022/10/25 08:07:21;;;;;;;26.42;5.15;;;;;;;;;;6239650;23;20023;-52
2022/10/25 08:09:48;;;;;;;19.80;4.63;;;;;;;;;;6239798;23;20034;-59
2022/10/25 08:12:21;;;;;;;18.80;3.67;;;;;;;;;;6239686;23;20023;-58
2022/10/25 08:14:49;;;;;;;21.60;3.65;;;;;;;;;;6237894;23;20024;-58
2022/10/25 08:17:23;;;;;;;25.77;3.95;;;;;;;;;;6239488;23;20058;-58
2022/10/25 08:19:50;;;;;;;23.15;4.07;;;;;;;;;;6240296;23;20028;-58
2022/10/25 08:22:18;;;;;;;20.27;3.78;;;;;;;;;;6240222;22;20028;-58
2022/10/25 08:24:59;;;;;;;18.73;3.45;;;;;;;;;;6239387;23;20206;-59
2022/10/25 08:27:26;;;;;;;12.57;3.45;;;;;;;;;;6213967;23;20278;-54
2022/10/25 08:30:00;;;;;;;18.80;3.60;;;;;;;;;;6241189;23;20028;-60
2022/10/25 08:32:28;;;;;;;15.23;3.60;;;;;;;;;;6240887;23;20020;-60
2022/10/25 08:35:02;;;;;;;13.95;3.30;;;;;;;;;;6240364;23;20371;-60
2022/10/25 08:37:29;;;;;;;11.13;2.72;;;;;;;;;;6235686;23;20020;-60
2022/10/25 08:39:56;;;;;;;9.85;3.00;;;;;;;;;;6239828;23;20353;-60
2022/10/25 08:42:50;;;;;;;12.00;3.00;;;;;;;;;;6242140;23;20062;-60
2022/10/25 08:45:33;;;;;;;12.70;2.80;;;;;;;;;;6239740;23;20103;-62
2022/10/25 08:48:13;;;;;;;10.85;3.08;;;;;;;;;;6241179;23;20022;-58
2022/10/25 08:50:41;;;;;;;13.70;3.13;;;;;;;;;;6241508;23;20024;-59
2022/10/25 08:53:27;;;;;;;16.95;3.20;;;;;;;;;;6227990;23;20058;-58
2022/10/25 08:55:54;;;;;;;;;;;;;;;;;;6240117;23;20747;-59
2022/10/25 08:58:58;;;;;;;9.27;2.17;;;;;;;;;;6240999;23;19919;-59
2022/10/25 09:01:38;;;;;;;13.18;2.25;;;;;;;;;;6239529;23;20366;-59
2022/10/25 09:04:12;;;;;;;11.85;2.38;;;;;;;;;;6239713;23;20078;-54
2022/10/25 09:07:02;;;;;;;3.28;1.45;;;;;;;;;;6239726;23;20118;-54
2022/10/25 09:09:48;;;;;;;9.10;1.48;;;;;;;;;;6227586;23;20028;-48
2022/10/25 09:12:30;;;;;;;6.55;1.45;;;;;;;;;;6239828;23;20099;-51
2022/10/25 09:15:12;;;;;;;4.70;1.42;;;;;;;;;;6239149;23;20034;-51
2022/10/25 09:17:58;;;;;;;5.70;1.70;;;;;;;;;;6239329;23;20022;-52
2022/10/25 09:20:45;;;;;;;7.63;1.55;;;;;;;;;;6239682;23;20480;-53
2022/10/25 09:23:39;;;;;;;4.28;1.40;;;;;;;;;;6237696;23;20832;-62
2022/10/25 09:26:19;;;;;;;8.15;1.50;;;;;;;;;;6239591;23;20020;-52
2022/10/25 09:28:55;;;;;;;6.65;1.58;;;;;;;;;;6239081;23;20016;-54
2022/10/25 09:31:30;;;;;;;8.55;1.35;;;;;;;;;;6239028;23;20398;-50
2022/10/25 09:34:00;;;;;;;9.05;1.73;;;;;;;;;;6239360;23;20026;-53
2022/10/25 09:36:37;;;;;;;2.83;1.20;;;;;;;;;;6238420;23;20132;-53
2022/10/25 09:39:10;;;;;;;4.60;0.80;;;;;;;;;;6238629;23;20098;-54
2022/10/25 09:41:46;;;;;;;1.67;0.95;;;;;;;;;;6239802;23;20020;-62
2022/10/25 09:44:31;;;;;;;6.97;0.95;;;;;;;;;;6237704;23;20027;-60
2022/10/25 09:47:50;;;;;;;6.10;1.27;;;;;;;;;;6239865;23;20476;-60
2022/10/25 09:50:31;;;;;;;4.45;0.80;;;;;;;;;;6087846;23;20109;-60
2022/10/25 09:53:06;;;;;;;3.08;0.88;;;;;;;;;;6087132;23;20101;-60
2022/10/25 09:55:45;;;;;;;9.02;1.27;;;;;;;;;;6188634;23;20023;-61
2022/10/25 09:58:20;;;;;;;8.65;1.92;;;;;;;;;;6239715;23;20094;-60
2022/10/25 10:00:49;;;;;;;5.18;1.08;;;;;;;;;;6238200;23;20028;-60
2022/10/25 10:03:27;;;;;;;4.70;1.30;;;;;;;;;;6239335;23;20454;-49
2022/10/25 10:05:55;;;;;;;8.70;1.45;;;;;;;;;;6239119;23;20052;-55
2022/10/25 10:08:32;;;;;;;3.50;1.25;;;;;;;;;;6238461;23;20017;-52
2022/10/25 10:11:05;;;;;;;3.25;1.13;;;;;;;;;;6238632;23;20030;-51
2022/10/25 10:13:41;;;;;;;7.38;1.30;;;;;;;;;;6239162;23;20026;-55
2022/10/25 10:16:17;;;;;;;3.35;1.38;;;;;;;;;;6226420;23;20020;-52
2022/10/25 10:18:45;;;;;;;10.82;1.60;;;;;;;;;;6238887;23;20020;-59
2022/10/25 10:21:32;;;;;;;4.57;1.27;;;;;;;;;;6238269;23;20401;-64
2022/10/25 10:24:13;;;;;;;5.32;1.52;;;;;;;;;;6238758;23;20020;-59
2022/10/25 10:26:45;;;;;;;6.60;1.20;;;;;;;;;;6238828;23;20017;-59
2022/10/25 10:29:21;;;;;;;4.13;1.00;;;;;;;;;;6237351;23;20337;-59
2022/10/25 10:31:53;;;;;;;1.80;1.00;;;;;;;;;;6239386;23;20020;-59
2022/10/25 10:34:26;;;;;;;;;;;;;;;;;;6239916;23;20129;-60
2022/10/25 10:37:01;;;;;;;2.22;0.80;;;;;;;;;;6237992;23;20010;-59
2022/10/25 10:39:35;;;;;;;1.27;0.80;;;;;;;;;;6239645;23;20054;-62
2022/10/25 10:42:13;;;;;;;2.78;0.80;;;;;;;;;;6240347;23;20103;-59
2022/10/25 10:45:12;;;;;;;0.90;0.80;;;;;;;;;;6238845;23;20024;-59
2022/10/25 10:47:49;;;;;;;3.00;0.70;;;;;;;;;;6241375;23;20027;-60
2022/10/25 10:50:22;;;;;;;2.13;0.65;;;;;;;;;;6242094;23;20082;-62
2022/10/25 10:52:58;;;;;;;1.65;0.50;;;;;;;;;;6239159;23;20125;-60
2022/10/25 10:55:44;;;;;;;4.05;0.90;;;;;;;;;;6240785;23;20122;-60
2022/10/25 10:58:29;;;;;;;2.05;0.80;;;;;;;;;;6240203;23;20020;-60
2022/10/25 11:00:58;;;;;;;2.50;0.65;;;;;;;;;;6240724;23;20020;-52
2022/10/25 11:03:44;;;;;;;1.67;0.70;;;;;;;;;;6241069;23;20024;-51
2022/10/25 11:06:31;;;;;;;1.88;0.57;;;;;;;;;;6238809;23;20347;-52
2022/10/25 11:09:04;;;;;;;;;;;;;;;;;;6240443;23;20052;-54
2022/10/25 11:11:32;;;;;;;1.40;0.60;;;;;;;;;;6240729;23;19942;-51
2022/10/25 11:14:23;;;;;;;1.67;0.80;;;;;;;;;;6238506;23;20481;-50
2022/10/25 11:17:03;;;;;;;3.63;0.80;;;;;;;;;;6239596;23;20108;-55
2022/10/25 11:19:38;;;;;;;3.58;0.90;;;;;;;;;;6240948;23;20099;-60
2022/10/25 11:22:29;;;;;;;3.05;1.00;;;;;;;;;;6239254;23;20020;-60
2022/10/25 11:25:19;;;;;;;1.27;0.80;;;;;;;;;;6239319;23;20024;-59
2022/10/25 11:28:12;;;;;;;1.88;0.75;;;;;;;;;;6239541;23;20253;-59
2022/10/25 11:30:45;;;;;;;6.28;1.02;;;;;;;;;;6240719;23;20030;-60
2022/10/25 11:33:20;;;;;;;3.67;1.13;;;;;;;;;;6241093;23;20020;-60
2022/10/25 11:36:01;;;;;;;5.07;0.88;;;;;;;;;;6239755;23;20027;-56
2022/10/25 11:38:35;;;;;;;1.42;0.70;;;;;;;;;;6241284;23;20026;-62
2022/10/25 11:41:24;;;;;;;3.45;1.42;;;;;;;;;;6241678;23;20020;-60
2022/10/25 11:44:11;;;;;;;11.05;2.65;;;;;;;;;;6238958;23;20026;-61
2022/10/25 11:46:52;;;;;;;13.32;2.40;;;;;;;;;;6225826;23;20023;-60
2022/10/25 11:49:29;;;;;;;10.95;3.05;;;;;;;;;;6240524;23;20027;-60
2022/10/25 11:52:14;;;;;;;15.15;2.60;;;;;;;;;;6239134;23;20107;-60
2022/10/25 11:54:42;;;;;;;8.73;2.92;;;;;;;;;;6212570;23;20051;-61
2022/10/25 11:57:15;;;;;;;10.95;3.60;;;;;;;;;;6239012;23;20020;-50
2022/10/25 12:00:01;;;;;;;19.42;4.20;;;;;;;;;;6239254;23;20347;-60
2022/10/25 12:02:35;;;;;;;22.15;4.38;;;;;;;;;;6239962;23;20078;-61
2022/10/25 12:05:14;;;;;;;11.00;4.18;;;;;;;;;;6239160;23;20028;-60
2022/10/25 12:07:47;;;;;;;18.40;3.50;;;;;;;;;;6239339;23;20032;-60
2022/10/25 12:10:18;;;;;;;34.60;5.25;;;;;;;;;;6241038;23;20021;-61
2022/10/25 12:12:45;;;;;;;18.17;4.10;;;;;;;;;;6239032;23;20028;-60
2022/10/25 12:15:21;;;;;;;19.55;3.97;;;;;;;;;;6240693;23;20043;-61
2022/10/25 12:17:49;;;;;;;27.35;4.72;;;;;;;;;;6239878;23;20034;-64
2022/10/25 12:20:24;;;;;;;15.27;4.00;;;;;;;;;;6239945;23;20028;-64
2022/10/25 12:23:01;;;;;;;16.55;3.97;;;;;;;;;;6239345;23;20016;-62
2022/10/25 12:25:36;;;;;;;21.63;3.70;;;;;;;;;;6239287;23;20031;-64
2022/10/25 12:28:09;;;;;;;28.60;4.15;;;;;;;;;;6238269;23;20131;-64
2022/10/25 12:30:43;;;;;;;21.25;4.55;;;;;;;;;;6239588;23;20109;-64
2022/10/25 12:33:17;;;;;;;21.33;4.07;;;;;;;;;;6239711;23;20023;-60
2022/10/25 12:35:53;;;;;;;24.73;4.22;;;;;;;;;;6239145;23;20026;-54
2022/10/25 12:38:27;;;;;;;27.35;5.10;;;;;;;;;;6238614;23;20054;-54
2022/10/25 12:41:07;;;;;;;27.58;5.53;;;;;;;;;;6239046;23;20476;-53
2022/10/25 12:43:34;;;;;;;27.77;5.32;;;;;;;;;;6238639;23;20027;-54
2022/10/25 12:46:08;;;;;;;28.77;5.60;;;;;;;;;;6240043;23;20024;-52
2022/10/25 12:48:53;;;;;;;42.75;6.05;;;;;;;;;;6239269;23;20017;-55
2022/10/25 12:51:31;;;;;;;32.28;6.18;;;;;;;;;;6239589;23;20654;-59
2022/10/25 12:54:17;;;;;;;34.80;5.60;;;;;;;;;;6239653;23;20055;-59
2022/10/25 12:57:06;;;;;;;37.55;5.32;;;;;;;;;;6238672;23;20020;-62
2022/10/25 12:59:52;;;;;;;30.42;5.40;;;;;;;;;;6239991;23;20020;-62
2022/10/25 13:02:32;;;;;;;25.27;4.88;;;;;;;;;;6240008;23;20020;-62
2022/10/25 13:05:18;;;;;;;24.83;4.55;;;;;;;;;;6237699;23;20020;-62
2022/10/25 13:07:54;;;;;;;23.50;4.97;;;;;;;;;;6239163;23;20123;-62
2022/10/25 13:10:22;;;;;;;42.50;5.20;;;;;;;;;;6239222;23;20020;-60
2022/10/25 13:13:04;;;;;;;25.75;4.35;;;;;;;;;;6238697;23;20052;-62
2022/10/25 13:15:42;;;;;;;35.67;5.17;;;;;;;;;;6239209;23;20102;-62
2022/10/25 13:18:27;;;;;;;31.73;4.60;;;;;;;;;;6239665;23;20528;-62
2022/10/25 13:21:02;;;;;;;27.17;4.47;;;;;;;;;;6238790;23;20127;-62
2022/10/25 13:23:42;;;;;;;33.00;5.30;;;;;;;;;;6239433;23;20473;-62
2022/10/25 13:26:17;;;;;;;20.65;4.40;;;;;;;;;;6238492;23;20103;-62
2022/10/25 13:29:01;;;;;;;36.33;5.40;;;;;;;;;;6236826;23;20024;-62
2022/10/25 13:31:31;;;;;;;23.00;5.67;;;;;;;;;;6238777;23;20034;-54
2022/10/25 13:34:13;;;;;;;32.33;5.40;;;;;;;;;;6236999;23;20787;-60
2022/10/25 13:36:50;;;;;;;43.88;6.85;;;;;;;;;;6238717;23;20102;-60
2022/10/25 13:39:23;;;;;;;36.50;5.43;;;;;;;;;;6240202;23;20016;-60
2022/10/25 13:41:53;;;;;;;27.27;5.35;;;;;;;;;;6237788;23;20023;-61
2022/10/25 13:44:27;;;;;;;38.88;6.35;;;;;;;;;;6240133;23;20027;-60
2022/10/25 13:46:55;;;;;;;36.40;5.75;;;;;;;;;;6239412;23;20738;-60
2022/10/25 13:49:22;;;;;;;;;;;;;;;;;;6240214;23;20357;-63
2022/10/25 13:51:57;;;;;;;39.65;5.70;;;;;;;;;;6239403;23;19993;-58
2022/10/25 13:54:29;;;;;;;34.47;5.30;;;;;;;;;;6240369;23;20115;-59
2022/10/25 13:57:03;;;;;;;40.92;6.53;;;;;;;;;;6237269;23;20103;-59
2022/10/25 13:59:35;;;;;;;32.45;6.05;;;;;;;;;;6237177;23;20016;-59
2022/10/25 14:02:16;;;;;;;32.28;5.30;;;;;;;;;;6238510;23;20020;-59
2022/10/25 14:04:43;;;;;;;43.35;6.10;;;;;;;;;;6237804;23;20027;-58
2022/10/25 14:07:50;;;;;;;33.03;5.63;;;;;;;;;;6226628;23;20027;-56
2022/10/25 14:10:25;;;;;;;34.53;5.38;;;;;;;;;;6155752;23;20051;-59
2022/10/25 14:13:06;;;;;;;36.47;5.13;;;;;;;;;;6237525;23;20032;-62
2022/10/25 14:15:37;;;;;;;32.92;5.90;;;;;;;;;;6237230;23;20021;-62
2022/10/25 14:18:16;;;;;;;40.95;6.10;;;;;;;;;;6240678;23;20024;-62
2022/10/25 14:20:44;;;;;;;38.28;6.03;;;;;;;;;;6242093;23;20024;-62
2022/10/25 14:23:31;;;;;;;42.38;6.38;;;;;;;;;;6240236;23;20802;-62
2022/10/25 14:26:00;;;;;;;42.13;5.55;;;;;;;;;;6240666;23;20034;-62
2022/10/25 14:28:34;;;;;;;44.65;6.43;;;;;;;;;;6241445;23;20458;-49
2022/10/25 14:31:03;;;;;;;34.58;5.88;;;;;;;;;;6239281;23;20028;-60
2022/10/25 14:33:50;;;;;;;41.00;6.38;;;;;;;;;;6240018;23;20016;-60
2022/10/25 14:36:28;;;;;;;43.22;6.32;;;;;;;;;;6240609;23;20024;-60
2022/10/25 14:38:59;;;;;;;37.05;6.47;;;;;;;;;;6240648;23;20141;-60
2022/10/25 14:41:36;;;;;;;39.85;6.20;;;;;;;;;;6238072;23;20026;-60
2022/10/25 14:44:27;;;;;;;37.42;5.68;;;;;;;;;;6239879;23;20028;-60
2022/10/25 14:46:55;;;;;;;39.20;6.28;;;;;;;;;;6241137;23;20406;-54
2022/10/25 14:49:29;;;;;;;42.95;6.22;;;;;;;;;;6241465;23;20016;-60
2022/10/25 14:52:00;;;;;;;39.88;6.35;;;;;;;;;;6241297;23;20034;-60
2022/10/25 14:54:30;;;;;;;41.78;6.43;;;;;;;;;;6242329;23;20294;-59
2022/10/25 14:57:05;;;;;;;48.53;7.00;;;;;;;;;;6238868;23;20030;-59
2022/10/25 14:59:46;;;;;;;47.30;7.30;;;;;;;;;;6240326;23;20095;-59
2022/10/25 15:02:20;;;;;;;43.13;6.70;;;;;;;;;;6240170;23;20031;-59
2022/10/25 15:04:48;;;;;;;44.45;6.15;;;;;;;;;;6241227;23;20378;-55
2022/10/25 15:07:23;;;;;;;40.83;6.13;;;;;;;;;;6239721;23;20016;-59
2022/10/25 15:09:51;;;;;;;31.83;5.53;;;;;;;;;;6240197;23;20028;-62
2022/10/25 15:12:20;;;;;;;28.52;5.22;;;;;;;;;;6238463;23;20031;-61
2022/10/25 15:14:55;;;;;;;34.13;5.90;;;;;;;;;;6241843;23;20042;-62